sensor_id;sensor_type;location;lat;lon;timestamp;P1;durP1;ratioP1;P2;durP2;ratioP2
4106;SDS011;21906;50.812;7.132;2023-11-21T00:01:18;3.00;;;2.67;;
4106;SDS011;21906;50.812;7.132;2023-11-21T00:03:44;3.57;;;3.03;;
4106;SDS011;21906;50.812;7.132;2023-11-21T00:06:09;3.37;;;2.90;;
4106;SDS011;21906;50.812;7.132;2023-11-21T00:08:36;3.33;;;3.03;;
4106;SDS011;21906;50.812;7.132;2023-11-21T00:11:01;3.23;;;3.03;;
4106;SDS011;21906;50.812;7.132;2023-11-21T00:13:30;3.90;;;3.53;;
4106;SDS011;21906;50.812;7.132;2023-11-21T00:15:59;3.80;;;3.50;;
4106;SDS011;21906;50.812;7.132;2023-11-21T00:18:24;6.03;;;4.17;;
4106;SDS011;21906;50.812;7.132;2023-11-21T00:20:50;4.03;;;3.63;;
4106;SDS011;21906;50.812;7.132;2023-11-21T00:23:16;4.37;;;4.00;;
4106;SDS011;21906;50.812;7.132;2023-11-21T00:25:41;6.20;;;3.90;;
4106;SDS011;21906;50.812;7.132;2023-11-21T00:28:07;4.60;;;3.70;;
4106;SDS011;21906;50.812;7.132;2023-11-21T00:30:33;4.20;;;3.80;;
4106;SDS011;21906;50.812;7.132;2023-11-21T00:32:58;4.37;;;4.03;;
4106;SDS011;21906;50.812;7.132;2023-11-21T00:35:24;4.73;;;4.33;;
4106;SDS011;21906;50.812;7.132;2023-11-21T00:37:51;4.27;;;3.97;;
4106;SDS011;21906;50.812;7.132;2023-11-21T00:40:17;4.37;;;4.07;;
4106;SDS011;21906;50.812;7.132;2023-11-21T00:42:46;5.23;;;4.73;;
4106;SDS011;21906;50.812;7.132;2023-11-21T00:45:12;4.80;;;4.40;;
4106;SDS011;21906;50.812;7.132;2023-11-21T00:47:38;4.43;;;4.00;;
4106;SDS011;21906;50.812;7.132;2023-11-21T00:50:04;4.47;;;3.97;;
4106;SDS011;21906;50.812;7.132;2023-11-21T00:52:31;4.47;;;4.17;;
4106;SDS011;21906;50.812;7.132;2023-11-21T00:54:57;4.73;;;4.23;;
4106;SDS011;21906;50.812;7.132;2023-11-21T00:57:25;5.30;;;4.40;;
4106;SDS011;21906;50.812;7.132;2023-11-21T00:59:51;4.50;;;4.10;;
4106;SDS011;21906;50.812;7.132;2023-11-21T01:02:17;5.00;;;4.50;;
4106;SDS011;21906;50.812;7.132;2023-11-21T01:04:43;5.33;;;4.83;;
4106;SDS011;21906;50.812;7.132;2023-11-21T01:07:09;6.40;;;4.70;;
4106;SDS011;21906;50.812;7.132;2023-11-21T01:09:34;5.30;;;4.90;;
4106;SDS011;21906;50.812;7.132;2023-11-21T01:12:00;7.47;;;4.90;;
4106;SDS011;21906;50.812;7.132;2023-11-21T01:14:26;6.33;;;5.10;;
4106;SDS011;21906;50.812;7.132;2023-11-21T01:16:52;6.33;;;5.07;;
4106;SDS011;21906;50.812;7.132;2023-11-21T01:19:18;6.43;;;5.70;;
4106;SDS011;21906;50.812;7.132;2023-11-21T01:21:43;6.30;;;5.70;;
4106;SDS011;21906;50.812;7.132;2023-11-21T01:24:09;6.13;;;5.53;;
4106;SDS011;21906;50.812;7.132;2023-11-21T01:26:35;6.70;;;5.50;;
4106;SDS011;21906;50.812;7.132;2023-11-21T01:29:00;8.80;;;5.93;;
4106;SDS011;21906;50.812;7.132;2023-11-21T01:31:26;8.03;;;6.20;;
4106;SDS011;21906;50.812;7.132;2023-11-21T01:33:54;8.20;;;7.03;;
4106;SDS011;21906;50.812;7.132;2023-11-21T01:36:20;7.73;;;6.80;;
4106;SDS011;21906;50.812;7.132;2023-11-21T01:38:46;9.70;;;6.37;;
4106;SDS011;21906;50.812;7.132;2023-11-21T01:41:13;6.67;;;6.00;;
4106;SDS011;21906;50.812;7.132;2023-11-21T01:43:39;6.63;;;6.03;;
4106;SDS011;21906;50.812;7.132;2023-11-21T01:46:05;6.63;;;5.80;;
4106;SDS011;21906;50.812;7.132;2023-11-21T01:48:32;7.53;;;6.27;;
4106;SDS011;21906;50.812;7.132;2023-11-21T01:50:58;7.20;;;6.40;;
4106;SDS011;21906;50.812;7.132;2023-11-21T01:53:24;7.23;;;6.10;;
4106;SDS011;21906;50.812;7.132;2023-11-21T01:55:51;7.73;;;6.93;;
4106;SDS011;21906;50.812;7.132;2023-11-21T01:58:18;7.03;;;6.33;;
4106;SDS011;21906;50.812;7.132;2023-11-21T02:00:45;7.17;;;6.30;;
4106;SDS011;21906;50.812;7.132;2023-11-21T02:03:10;10.93;;;6.10;;
4106;SDS011;21906;50.812;7.132;2023-11-21T02:05:37;10.33;;;6.87;;
4106;SDS011;21906;50.812;7.132;2023-11-21T02:08:02;8.50;;;6.40;;
4106;SDS011;21906;50.812;7.132;2023-11-21T02:10:29;9.47;;;6.13;;
4106;SDS011;21906;50.812;7.132;2023-11-21T02:12:56;6.83;;;6.13;;
4106;SDS011;21906;50.812;7.132;2023-11-21T02:15:23;7.73;;;7.00;;
4106;SDS011;21906;50.812;7.132;2023-11-21T02:17:52;7.57;;;6.87;;
4106;SDS011;21906;50.812;7.132;2023-11-21T02:20:18;8.27;;;7.10;;
4106;SDS011;21906;50.812;7.132;2023-11-21T02:25:15;7.23;;;6.53;;
4106;SDS011;21906;50.812;7.132;2023-11-21T02:27:40;6.83;;;6.20;;
4106;SDS011;21906;50.812;7.132;2023-11-21T02:30:08;9.73;;;7.20;;
4106;SDS011;21906;50.812;7.132;2023-11-21T02:32:37;9.03;;;7.37;;
4106;SDS011;21906;50.812;7.132;2023-11-21T02:35:03;8.00;;;7.20;;
4106;SDS011;21906;50.812;7.132;2023-11-21T02:37:32;8.10;;;6.40;;
4106;SDS011;21906;50.812;7.132;2023-11-21T02:39:58;8.03;;;6.67;;
4106;SDS011;21906;50.812;7.132;2023-11-21T02:42:24;10.67;;;7.67;;
4106;SDS011;21906;50.812;7.132;2023-11-21T02:44:50;8.93;;;7.10;;
4106;SDS011;21906;50.812;7.132;2023-11-21T02:47:15;7.53;;;6.80;;
4106;SDS011;21906;50.812;7.132;2023-11-21T02:49:41;7.40;;;6.60;;
4106;SDS011;21906;50.812;7.132;2023-11-21T02:52:07;8.67;;;6.93;;
4106;SDS011;21906;50.812;7.132;2023-11-21T02:54:32;8.73;;;7.40;;
4106;SDS011;21906;50.812;7.132;2023-11-21T02:57:01;8.40;;;7.17;;
4106;SDS011;21906;50.812;7.132;2023-11-21T02:59:27;8.47;;;7.20;;
4106;SDS011;21906;50.812;7.132;2023-11-21T03:01:53;9.57;;;7.33;;
4106;SDS011;21906;50.812;7.132;2023-11-21T03:04:18;7.03;;;6.33;;
4106;SDS011;21906;50.812;7.132;2023-11-21T03:06:44;7.80;;;7.00;;
4106;SDS011;21906;50.812;7.132;2023-11-21T03:09:10;8.73;;;6.80;;
4106;SDS011;21906;50.812;7.132;2023-11-21T03:11:39;7.33;;;6.50;;
4106;SDS011;21906;50.812;7.132;2023-11-21T03:14:04;6.60;;;6.00;;
4106;SDS011;21906;50.812;7.132;2023-11-21T03:16:31;8.50;;;6.73;;
4106;SDS011;21906;50.812;7.132;2023-11-21T03:18:57;8.80;;;7.30;;
4106;SDS011;21906;50.812;7.132;2023-11-21T03:21:23;7.77;;;6.90;;
4106;SDS011;21906;50.812;7.132;2023-11-21T03:23:49;8.43;;;6.90;;
4106;SDS011;21906;50.812;7.132;2023-11-21T03:26:15;8.60;;;7.70;;
4106;SDS011;21906;50.812;7.132;2023-11-21T03:28:41;10.83;;;8.43;;
4106;SDS011;21906;50.812;7.132;2023-11-21T03:31:07;12.03;;;8.03;;
4106;SDS011;21906;50.812;7.132;2023-11-21T03:33:34;11.43;;;7.80;;
4106;SDS011;21906;50.812;7.132;2023-11-21T03:36:00;9.30;;;7.50;;
4106;SDS011;21906;50.812;7.132;2023-11-21T03:38:26;11.30;;;7.00;;
4106;SDS011;21906;50.812;7.132;2023-11-21T03:40:52;7.33;;;6.60;;
4106;SDS011;21906;50.812;7.132;2023-11-21T03:43:18;8.37;;;7.50;;
4106;SDS011;21906;50.812;7.132;2023-11-21T03:45:44;9.20;;;7.30;;
4106;SDS011;21906;50.812;7.132;2023-11-21T03:48:09;10.97;;;7.63;;
4106;SDS011;21906;50.812;7.132;2023-11-21T03:50:37;9.97;;;7.30;;
4106;SDS011;21906;50.812;7.132;2023-11-21T03:53:03;8.50;;;7.70;;
4106;SDS011;21906;50.812;7.132;2023-11-21T03:55:29;8.37;;;7.17;;
4106;SDS011;21906;50.812;7.132;2023-11-21T03:57:56;8.67;;;6.87;;
4106;SDS011;21906;50.812;7.132;2023-11-21T04:00:22;10.53;;;8.23;;
4106;SDS011;21906;50.812;7.132;2023-11-21T04:02:48;8.93;;;7.67;;
4106;SDS011;21906;50.812;7.132;2023-11-21T04:05:16;8.53;;;7.37;;
4106;SDS011;21906;50.812;7.132;2023-11-21T04:07:42;12.97;;;8.53;;
4106;SDS011;21906;50.812;7.132;2023-11-21T04:10:08;9.67;;;7.70;;
4106;SDS011;21906;50.812;7.132;2023-11-21T04:12:34;12.40;;;8.83;;
4106;SDS011;21906;50.812;7.132;2023-11-21T04:15:01;18.17;;;9.27;;
4106;SDS011;21906;50.812;7.132;2023-11-21T04:17:26;12.60;;;8.30;;
4106;SDS011;21906;50.812;7.132;2023-11-21T04:19:52;11.90;;;8.20;;
4106;SDS011;21906;50.812;7.132;2023-11-21T04:22:17;8.53;;;7.23;;
4106;SDS011;21906;50.812;7.132;2023-11-21T04:24:43;9.40;;;7.80;;
4106;SDS011;21906;50.812;7.132;2023-11-21T04:27:09;8.47;;;7.57;;
4106;SDS011;21906;50.812;7.132;2023-11-21T04:29:34;10.60;;;8.17;;
4106;SDS011;21906;50.812;7.132;2023-11-21T04:32:00;10.70;;;8.10;;
4106;SDS011;21906;50.812;7.132;2023-11-21T04:34:27;11.50;;;8.30;;
4106;SDS011;21906;50.812;7.132;2023-11-21T04:36:55;11.30;;;8.27;;
4106;SDS011;21906;50.812;7.132;2023-11-21T04:39:22;9.77;;;8.03;;
4106;SDS011;21906;50.812;7.132;2023-11-21T04:41:47;10.40;;;7.80;;
4106;SDS011;21906;50.812;7.132;2023-11-21T04:44:13;11.40;;;8.87;;
4106;SDS011;21906;50.812;7.132;2023-11-21T04:46:39;12.93;;;9.17;;
4106;SDS011;21906;50.812;7.132;2023-11-21T04:49:04;13.20;;;8.37;;
4106;SDS011;21906;50.812;7.132;2023-11-21T04:51:30;14.97;;;9.00;;
4106;SDS011;21906;50.812;7.132;2023-11-21T04:53:57;16.00;;;9.57;;
4106;SDS011;21906;50.812;7.132;2023-11-21T04:56:23;10.10;;;8.00;;
4106;SDS011;21906;50.812;7.132;2023-11-21T04:58:48;13.80;;;9.10;;
4106;SDS011;21906;50.812;7.132;2023-11-21T05:01:14;13.83;;;9.33;;
4106;SDS011;21906;50.812;7.132;2023-11-21T05:03:39;11.63;;;9.07;;
4106;SDS011;21906;50.812;7.132;2023-11-21T05:06:05;13.23;;;9.60;;
4106;SDS011;21906;50.812;7.132;2023-11-21T05:08:31;13.00;;;9.40;;
4106;SDS011;21906;50.812;7.132;2023-11-21T05:10:57;14.53;;;9.77;;
4106;SDS011;21906;50.812;7.132;2023-11-21T05:13:23;11.37;;;8.80;;
4106;SDS011;21906;50.812;7.132;2023-11-21T05:15:52;11.87;;;8.80;;
4106;SDS011;21906;50.812;7.132;2023-11-21T05:18:23;11.77;;;9.47;;
4106;SDS011;21906;50.812;7.132;2023-11-21T05:20:52;11.33;;;9.00;;
4106;SDS011;21906;50.812;7.132;2023-11-21T05:23:18;20.23;;;10.70;;
4106;SDS011;21906;50.812;7.132;2023-11-21T05:25:44;21.53;;;9.37;;
4106;SDS011;21906;50.812;7.132;2023-11-21T05:28:11;14.67;;;10.77;;
4106;SDS011;21906;50.812;7.132;2023-11-21T05:30:37;13.60;;;9.90;;
4106;SDS011;21906;50.812;7.132;2023-11-21T05:33:04;12.17;;;10.07;;
4106;SDS011;21906;50.812;7.132;2023-11-21T05:35:30;10.50;;;9.40;;
4106;SDS011;21906;50.812;7.132;2023-11-21T05:37:56;14.60;;;9.93;;
4106;SDS011;21906;50.812;7.132;2023-11-21T05:40:21;11.70;;;9.17;;
4106;SDS011;21906;50.812;7.132;2023-11-21T05:42:47;12.47;;;9.63;;
4106;SDS011;21906;50.812;7.132;2023-11-21T05:45:13;18.40;;;10.23;;
4106;SDS011;21906;50.812;7.132;2023-11-21T05:47:41;11.97;;;9.40;;
4106;SDS011;21906;50.812;7.132;2023-11-21T05:50:11;11.17;;;9.63;;
4106;SDS011;21906;50.812;7.132;2023-11-21T05:52:39;11.10;;;8.90;;
4106;SDS011;21906;50.812;7.132;2023-11-21T05:55:06;12.70;;;9.70;;
4106;SDS011;21906;50.812;7.132;2023-11-21T05:57:33;15.17;;;9.93;;
4106;SDS011;21906;50.812;7.132;2023-11-21T06:00:01;13.03;;;9.70;;
4106;SDS011;21906;50.812;7.132;2023-11-21T06:02:29;14.00;;;10.43;;
4106;SDS011;21906;50.812;7.132;2023-11-21T06:04:56;14.17;;;10.43;;
4106;SDS011;21906;50.812;7.132;2023-11-21T06:07:22;15.00;;;10.53;;
4106;SDS011;21906;50.812;7.132;2023-11-21T06:09:48;14.87;;;10.20;;
4106;SDS011;21906;50.812;7.132;2023-11-21T06:12:15;15.50;;;11.60;;
4106;SDS011;21906;50.812;7.132;2023-11-21T06:14:41;17.30;;;12.40;;
4106;SDS011;21906;50.812;7.132;2023-11-21T06:17:06;18.67;;;12.10;;
4106;SDS011;21906;50.812;7.132;2023-11-21T06:19:32;15.33;;;11.80;;
4106;SDS011;21906;50.812;7.132;2023-11-21T06:21:58;17.77;;;12.30;;
4106;SDS011;21906;50.812;7.132;2023-11-21T06:24:23;17.70;;;12.90;;
4106;SDS011;21906;50.812;7.132;2023-11-21T06:26:49;20.03;;;12.90;;
4106;SDS011;21906;50.812;7.132;2023-11-21T06:29:15;20.07;;;12.03;;
4106;SDS011;21906;50.812;7.132;2023-11-21T06:31:41;18.80;;;13.70;;
4106;SDS011;21906;50.812;7.132;2023-11-21T06:34:06;18.70;;;12.87;;
4106;SDS011;21906;50.812;7.132;2023-11-21T06:36:34;25.80;;;14.30;;
4106;SDS011;21906;50.812;7.132;2023-11-21T06:38:59;20.40;;;13.33;;
4106;SDS011;21906;50.812;7.132;2023-11-21T06:41:25;21.73;;;14.40;;
4106;SDS011;21906;50.812;7.132;2023-11-21T06:43:50;22.97;;;13.23;;
4106;SDS011;21906;50.812;7.132;2023-11-21T06:46:16;21.63;;;12.80;;
4106;SDS011;21906;50.812;7.132;2023-11-21T06:48:42;21.87;;;14.07;;
4106;SDS011;21906;50.812;7.132;2023-11-21T06:51:08;21.83;;;13.67;;
4106;SDS011;21906;50.812;7.132;2023-11-21T06:53:33;20.33;;;13.80;;
4106;SDS011;21906;50.812;7.132;2023-11-21T06:56:01;23.83;;;12.87;;
4106;SDS011;21906;50.812;7.132;2023-11-21T06:58:27;21.60;;;13.40;;
4106;SDS011;21906;50.812;7.132;2023-11-21T07:00:52;23.93;;;14.30;;
4106;SDS011;21906;50.812;7.132;2023-11-21T07:03:18;22.87;;;14.57;;
4106;SDS011;21906;50.812;7.132;2023-11-21T07:05:44;21.00;;;13.87;;
4106;SDS011;21906;50.812;7.132;2023-11-21T07:08:10;30.97;;;15.67;;
4106;SDS011;21906;50.812;7.132;2023-11-21T07:10:37;26.20;;;14.30;;
4106;SDS011;21906;50.812;7.132;2023-11-21T07:13:03;21.13;;;12.33;;
4106;SDS011;21906;50.812;7.132;2023-11-21T07:15:29;21.70;;;13.67;;
4106;SDS011;21906;50.812;7.132;2023-11-21T07:17:54;21.93;;;13.30;;
4106;SDS011;21906;50.812;7.132;2023-11-21T07:20:20;24.20;;;14.90;;
4106;SDS011;21906;50.812;7.132;2023-11-21T07:22:46;21.57;;;13.23;;
4106;SDS011;21906;50.812;7.132;2023-11-21T07:25:12;22.53;;;14.20;;
4106;SDS011;21906;50.812;7.132;2023-11-21T07:27:38;20.70;;;13.27;;
4106;SDS011;21906;50.812;7.132;2023-11-21T07:30:03;22.30;;;14.00;;
4106;SDS011;21906;50.812;7.132;2023-11-21T07:32:31;27.70;;;14.87;;
4106;SDS011;21906;50.812;7.132;2023-11-21T07:34:57;27.20;;;15.00;;
4106;SDS011;21906;50.812;7.132;2023-11-21T07:37:24;21.67;;;13.93;;
4106;SDS011;21906;50.812;7.132;2023-11-21T07:39:53;26.80;;;14.77;;
4106;SDS011;21906;50.812;7.132;2023-11-21T07:42:21;23.07;;;14.70;;
4106;SDS011;21906;50.812;7.132;2023-11-21T07:44:49;27.47;;;14.93;;
4106;SDS011;21906;50.812;7.132;2023-11-21T07:47:15;18.57;;;13.20;;
4106;SDS011;21906;50.812;7.132;2023-11-21T07:49:40;26.07;;;13.93;;
4106;SDS011;21906;50.812;7.132;2023-11-21T07:52:08;18.93;;;13.33;;
4106;SDS011;21906;50.812;7.132;2023-11-21T07:54:34;24.67;;;14.40;;
4106;SDS011;21906;50.812;7.132;2023-11-21T07:57:00;23.13;;;13.90;;
4106;SDS011;21906;50.812;7.132;2023-11-21T07:59:26;17.53;;;13.73;;
4106;SDS011;21906;50.812;7.132;2023-11-21T08:01:52;27.27;;;15.13;;
4106;SDS011;21906;50.812;7.132;2023-11-21T08:04:18;23.23;;;14.20;;
4106;SDS011;21906;50.812;7.132;2023-11-21T08:06:43;26.57;;;14.30;;
4106;SDS011;21906;50.812;7.132;2023-11-21T08:09:09;25.93;;;14.53;;
4106;SDS011;21906;50.812;7.132;2023-11-21T08:11:37;27.27;;;13.40;;
4106;SDS011;21906;50.812;7.132;2023-11-21T08:14:04;27.60;;;14.13;;
4106;SDS011;21906;50.812;7.132;2023-11-21T08:16:30;18.23;;;12.10;;
4106;SDS011;21906;50.812;7.132;2023-11-21T08:18:56;23.37;;;14.10;;
4106;SDS011;21906;50.812;7.132;2023-11-21T08:21:21;26.13;;;15.07;;
4106;SDS011;21906;50.812;7.132;2023-11-21T08:23:49;19.93;;;13.30;;
4106;SDS011;21906;50.812;7.132;2023-11-21T08:26:19;22.97;;;12.80;;
4106;SDS011;21906;50.812;7.132;2023-11-21T08:28:45;23.70;;;13.83;;
4106;SDS011;21906;50.812;7.132;2023-11-21T08:31:12;24.60;;;14.27;;
4106;SDS011;21906;50.812;7.132;2023-11-21T08:33:38;18.50;;;13.03;;
4106;SDS011;21906;50.812;7.132;2023-11-21T08:36:07;22.67;;;13.30;;
4106;SDS011;21906;50.812;7.132;2023-11-21T08:38:34;22.67;;;13.67;;
4106;SDS011;21906;50.812;7.132;2023-11-21T08:41:06;20.70;;;12.67;;
4106;SDS011;21906;50.812;7.132;2023-11-21T08:43:35;25.97;;;14.37;;
4106;SDS011;21906;50.812;7.132;2023-11-21T08:46:04;25.53;;;13.63;;
4106;SDS011;21906;50.812;7.132;2023-11-21T08:48:31;26.90;;;14.23;;
4106;SDS011;21906;50.812;7.132;2023-11-21T08:50:56;23.17;;;14.20;;
4106;SDS011;21906;50.812;7.132;2023-11-21T08:53:22;28.80;;;15.10;;
4106;SDS011;21906;50.812;7.132;2023-11-21T08:55:48;24.17;;;14.47;;
4106;SDS011;21906;50.812;7.132;2023-11-21T08:58:15;20.27;;;13.70;;
4106;SDS011;21906;50.812;7.132;2023-11-21T09:00:41;27.97;;;15.10;;
4106;SDS011;21906;50.812;7.132;2023-11-21T09:03:07;27.27;;;15.70;;
4106;SDS011;21906;50.812;7.132;2023-11-21T09:05:37;24.03;;;14.20;;
4106;SDS011;21906;50.812;7.132;2023-11-21T09:08:04;20.30;;;13.23;;
4106;SDS011;21906;50.812;7.132;2023-11-21T09:10:30;24.00;;;14.43;;
4106;SDS011;21906;50.812;7.132;2023-11-21T09:12:57;26.60;;;15.50;;
4106;SDS011;21906;50.812;7.132;2023-11-21T09:15:24;23.40;;;15.07;;
4106;SDS011;21906;50.812;7.132;2023-11-21T09:17:50;24.47;;;14.73;;
4106;SDS011;21906;50.812;7.132;2023-11-21T09:20:16;20.80;;;14.50;;
4106;SDS011;21906;50.812;7.132;2023-11-21T09:22:42;28.70;;;15.10;;
4106;SDS011;21906;50.812;7.132;2023-11-21T09:25:09;26.53;;;14.30;;
4106;SDS011;21906;50.812;7.132;2023-11-21T09:27:36;27.33;;;14.83;;
4106;SDS011;21906;50.812;7.132;2023-11-21T09:30:01;26.00;;;15.87;;
4106;SDS011;21906;50.812;7.132;2023-11-21T09:32:30;22.67;;;13.57;;
4106;SDS011;21906;50.812;7.132;2023-11-21T09:34:56;30.03;;;15.40;;
4106;SDS011;21906;50.812;7.132;2023-11-21T09:37:23;29.17;;;15.80;;
4106;SDS011;21906;50.812;7.132;2023-11-21T09:39:49;25.00;;;14.93;;
4106;SDS011;21906;50.812;7.132;2023-11-21T09:42:17;30.13;;;14.53;;
4106;SDS011;21906;50.812;7.132;2023-11-21T09:44:51;21.47;;;13.40;;
4106;SDS011;21906;50.812;7.132;2023-11-21T09:47:28;23.53;;;13.90;;
4106;SDS011;21906;50.812;7.132;2023-11-21T09:49:54;26.83;;;13.40;;
4106;SDS011;21906;50.812;7.132;2023-11-21T09:52:25;24.10;;;14.23;;
4106;SDS011;21906;50.812;7.132;2023-11-21T09:54:52;24.93;;;14.63;;
4106;SDS011;21906;50.812;7.132;2023-11-21T09:57:21;26.80;;;14.43;;
4106;SDS011;21906;50.812;7.132;2023-11-21T09:59:50;27.43;;;14.80;;
4106;SDS011;21906;50.812;7.132;2023-11-21T10:02:28;26.43;;;15.70;;
4106;SDS011;21906;50.812;7.132;2023-11-21T10:04:56;26.83;;;14.97;;
4106;SDS011;21906;50.812;7.132;2023-11-21T10:07:21;28.43;;;16.10;;
4106;SDS011;21906;50.812;7.132;2023-11-21T10:09:48;31.60;;;16.53;;
4106;SDS011;21906;50.812;7.132;2023-11-21T10:12:16;26.60;;;16.93;;
4106;SDS011;21906;50.812;7.132;2023-11-21T10:14:45;29.40;;;16.40;;
4106;SDS011;21906;50.812;7.132;2023-11-21T10:17:13;29.60;;;16.67;;
4106;SDS011;21906;50.812;7.132;2023-11-21T10:19:51;28.33;;;16.57;;
4106;SDS011;21906;50.812;7.132;2023-11-21T10:22:19;28.77;;;16.47;;
4106;SDS011;21906;50.812;7.132;2023-11-21T10:24:45;31.27;;;15.93;;
4106;SDS011;21906;50.812;7.132;2023-11-21T10:27:11;35.90;;;18.43;;
4106;SDS011;21906;50.812;7.132;2023-11-21T10:29:38;32.77;;;17.50;;
4106;SDS011;21906;50.812;7.132;2023-11-21T10:32:04;33.97;;;18.23;;
4106;SDS011;21906;50.812;7.132;2023-11-21T10:34:30;29.27;;;16.90;;
4106;SDS011;21906;50.812;7.132;2023-11-21T10:36:57;35.60;;;17.73;;
4106;SDS011;21906;50.812;7.132;2023-11-21T10:39:23;32.60;;;17.10;;
4106;SDS011;21906;50.812;7.132;2023-11-21T10:41:52;32.07;;;17.30;;
4106;SDS011;21906;50.812;7.132;2023-11-21T10:44:20;33.13;;;17.27;;
4106;SDS011;21906;50.812;7.132;2023-11-21T10:46:52;31.37;;;17.53;;
4106;SDS011;21906;50.812;7.132;2023-11-21T10:49:24;29.60;;;16.87;;
4106;SDS011;21906;50.812;7.132;2023-11-21T10:51:51;36.53;;;18.73;;
4106;SDS011;21906;50.812;7.132;2023-11-21T10:54:19;34.23;;;17.60;;
4106;SDS011;21906;50.812;7.132;2023-11-21T10:56:46;35.83;;;18.43;;
4106;SDS011;21906;50.812;7.132;2023-11-21T10:59:15;30.30;;;17.00;;
4106;SDS011;21906;50.812;7.132;2023-11-21T11:01:42;38.90;;;18.00;;
4106;SDS011;21906;50.812;7.132;2023-11-21T11:04:11;30.77;;;16.77;;
4106;SDS011;21906;50.812;7.132;2023-11-21T11:06:42;33.43;;;18.20;;
4106;SDS011;21906;50.812;7.132;2023-11-21T11:09:10;34.97;;;18.53;;
4106;SDS011;21906;50.812;7.132;2023-11-21T11:11:41;37.73;;;18.13;;
4106;SDS011;21906;50.812;7.132;2023-11-21T11:14:12;34.10;;;18.10;;
4106;SDS011;21906;50.812;7.132;2023-11-21T11:16:39;37.53;;;18.80;;
4106;SDS011;21906;50.812;7.132;2023-11-21T11:19:11;36.07;;;19.57;;
4106;SDS011;21906;50.812;7.132;2023-11-21T11:27:48;26.30;;;15.07;;
4106;SDS011;21906;50.812;7.132;2023-11-21T11:38:33;31.20;;;16.57;;
4106;SDS011;21906;50.812;7.132;2023-11-21T11:41:03;34.20;;;16.90;;
4106;SDS011;21906;50.812;7.132;2023-11-21T11:43:30;29.73;;;15.83;;
4106;SDS011;21906;50.812;7.132;2023-11-21T11:46:09;31.20;;;17.70;;
4106;SDS011;21906;50.812;7.132;2023-11-21T11:48:38;30.00;;;16.60;;
4106;SDS011;21906;50.812;7.132;2023-11-21T11:51:11;31.40;;;17.43;;
4106;SDS011;21906;50.812;7.132;2023-11-21T11:53:46;27.47;;;16.83;;
4106;SDS011;21906;50.812;7.132;2023-11-21T11:58:44;25.70;;;15.90;;
4106;SDS011;21906;50.812;7.132;2023-11-21T12:01:11;31.93;;;17.03;;
4106;SDS011;21906;50.812;7.132;2023-11-21T12:03:38;34.53;;;17.87;;
4106;SDS011;21906;50.812;7.132;2023-11-21T12:06:04;30.70;;;17.43;;
4106;SDS011;21906;50.812;7.132;2023-11-21T12:08:32;28.43;;;17.40;;
4106;SDS011;21906;50.812;7.132;2023-11-21T12:10:57;34.53;;;17.83;;
4106;SDS011;21906;50.812;7.132;2023-11-21T12:13:23;33.17;;;18.23;;
4106;SDS011;21906;50.812;7.132;2023-11-21T12:15:49;35.67;;;18.33;;
4106;SDS011;21906;50.812;7.132;2023-11-21T12:18:16;35.67;;;18.40;;
4106;SDS011;21906;50.812;7.132;2023-11-21T12:20:41;32.53;;;18.57;;
4106;SDS011;21906;50.812;7.132;2023-11-21T12:23:08;33.10;;;17.63;;
4106;SDS011;21906;50.812;7.132;2023-11-21T12:25:39;35.27;;;18.70;;
4106;SDS011;21906;50.812;7.132;2023-11-21T12:28:06;40.57;;;19.33;;
4106;SDS011;21906;50.812;7.132;2023-11-21T12:30:33;29.70;;;17.33;;
4106;SDS011;21906;50.812;7.132;2023-11-21T12:33:03;35.77;;;18.23;;
4106;SDS011;21906;50.812;7.132;2023-11-21T12:35:33;38.83;;;19.60;;
4106;SDS011;21906;50.812;7.132;2023-11-21T12:38:00;41.03;;;19.43;;
4106;SDS011;21906;50.812;7.132;2023-11-21T12:40:30;33.90;;;18.40;;
4106;SDS011;21906;50.812;7.132;2023-11-21T12:42:56;33.00;;;18.50;;
4106;SDS011;21906;50.812;7.132;2023-11-21T12:45:24;43.97;;;20.67;;
4106;SDS011;21906;50.812;7.132;2023-11-21T12:47:54;37.23;;;20.43;;
4106;SDS011;21906;50.812;7.132;2023-11-21T12:50:24;41.67;;;22.00;;
4106;SDS011;21906;50.812;7.132;2023-11-21T12:52:58;37.80;;;19.90;;
4106;SDS011;21906;50.812;7.132;2023-11-21T12:55:30;40.63;;;20.80;;
4106;SDS011;21906;50.812;7.132;2023-11-21T12:57:57;30.63;;;18.03;;
4106;SDS011;21906;50.812;7.132;2023-11-21T13:00:32;36.97;;;18.60;;
4106;SDS011;21906;50.812;7.132;2023-11-21T13:03:02;36.27;;;19.07;;
4106;SDS011;21906;50.812;7.132;2023-11-21T13:05:32;35.20;;;17.23;;
4106;SDS011;21906;50.812;7.132;2023-11-21T13:08:12;33.00;;;17.27;;
4106;SDS011;21906;50.812;7.132;2023-11-21T13:10:43;31.00;;;17.23;;
4106;SDS011;21906;50.812;7.132;2023-11-21T13:13:12;33.10;;;18.63;;
4106;SDS011;21906;50.812;7.132;2023-11-21T13:15:48;39.23;;;19.50;;
4106;SDS011;21906;50.812;7.132;2023-11-21T13:18:15;35.60;;;17.97;;
4106;SDS011;21906;50.812;7.132;2023-11-21T13:20:42;41.00;;;17.90;;
4106;SDS011;21906;50.812;7.132;2023-11-21T13:23:09;36.60;;;18.40;;
4106;SDS011;21906;50.812;7.132;2023-11-21T13:25:41;30.80;;;17.33;;
4106;SDS011;21906;50.812;7.132;2023-11-21T13:28:07;34.87;;;18.80;;
4106;SDS011;21906;50.812;7.132;2023-11-21T13:30:36;44.03;;;19.27;;
4106;SDS011;21906;50.812;7.132;2023-11-21T13:33:04;37.07;;;17.73;;
4106;SDS011;21906;50.812;7.132;2023-11-21T13:35:39;33.80;;;16.63;;
4106;SDS011;21906;50.812;7.132;2023-11-21T13:38:12;28.07;;;15.93;;
4106;SDS011;21906;50.812;7.132;2023-11-21T13:40:42;31.20;;;16.80;;
4106;SDS011;21906;50.812;7.132;2023-11-21T13:43:17;35.27;;;17.17;;
4106;SDS011;21906;50.812;7.132;2023-11-21T13:45:45;36.07;;;16.33;;
4106;SDS011;21906;50.812;7.132;2023-11-21T13:48:13;32.60;;;16.73;;
4106;SDS011;21906;50.812;7.132;2023-11-21T13:50:42;32.57;;;15.70;;
4106;SDS011;21906;50.812;7.132;2023-11-21T13:53:23;32.57;;;15.77;;
4106;SDS011;21906;50.812;7.132;2023-11-21T13:55:50;34.33;;;15.50;;
4106;SDS011;21906;50.812;7.132;2023-11-21T13:58:19;34.70;;;16.73;;
4106;SDS011;21906;50.812;7.132;2023-11-21T14:01:09;31.23;;;15.70;;
4106;SDS011;21906;50.812;7.132;2023-11-21T14:03:53;29.20;;;15.30;;
4106;SDS011;21906;50.812;7.132;2023-11-21T14:06:26;30.40;;;15.07;;
4106;SDS011;21906;50.812;7.132;2023-11-21T14:08:59;27.83;;;13.93;;
4106;SDS011;21906;50.812;7.132;2023-11-21T14:11:30;28.67;;;14.73;;
4106;SDS011;21906;50.812;7.132;2023-11-21T14:13:56;29.17;;;15.00;;
4106;SDS011;21906;50.812;7.132;2023-11-21T14:16:24;28.27;;;15.37;;
4106;SDS011;21906;50.812;7.132;2023-11-21T14:18:50;34.03;;;14.60;;
4106;SDS011;21906;50.812;7.132;2023-11-21T14:21:26;25.80;;;14.30;;
4106;SDS011;21906;50.812;7.132;2023-11-21T14:23:52;36.53;;;15.37;;
4106;SDS011;21906;50.812;7.132;2023-11-21T14:26:20;29.70;;;14.17;;
4106;SDS011;21906;50.812;7.132;2023-11-21T14:28:46;26.30;;;13.93;;
4106;SDS011;21906;50.812;7.132;2023-11-21T14:31:14;31.00;;;14.70;;
4106;SDS011;21906;50.812;7.132;2023-11-21T14:33:42;27.27;;;14.13;;
4106;SDS011;21906;50.812;7.132;2023-11-21T14:36:09;30.40;;;15.40;;
4106;SDS011;21906;50.812;7.132;2023-11-21T14:38:35;30.70;;;15.07;;
4106;SDS011;21906;50.812;7.132;2023-11-21T14:41:04;25.27;;;13.70;;
4106;SDS011;21906;50.812;7.132;2023-11-21T14:43:32;35.20;;;16.20;;
4106;SDS011;21906;50.812;7.132;2023-11-21T14:46:00;29.70;;;14.20;;
4106;SDS011;21906;50.812;7.132;2023-11-21T14:48:28;29.00;;;15.00;;
4106;SDS011;21906;50.812;7.132;2023-11-21T14:51:07;29.70;;;14.80;;
4106;SDS011;21906;50.812;7.132;2023-11-21T14:53:53;33.90;;;15.83;;
4106;SDS011;21906;50.812;7.132;2023-11-21T14:56:22;29.00;;;15.77;;
4106;SDS011;21906;50.812;7.132;2023-11-21T14:58:59;29.70;;;14.07;;
4106;SDS011;21906;50.812;7.132;2023-11-21T15:01:37;28.90;;;14.17;;
4106;SDS011;21906;50.812;7.132;2023-11-21T15:04:21;28.73;;;15.00;;